createdAt,value
2023-05-22T00:00:51.186Z,24.42
2023-05-22T00:01:52.367Z,24.41
2023-05-22T00:02:52.306Z,24.41
2023-05-22T00:03:51.286Z,24.44
2023-05-22T00:04:51.364Z,24.42
2023-05-22T00:05:52.358Z,24.44
2023-05-22T00:06:52.413Z,24.41
2023-05-22T00:07:52.573Z,24.41
2023-05-22T00:08:52.524Z,24.42
2023-05-22T00:09:51.553Z,24.41
2023-05-22T00:10:51.819Z,24.42
2023-05-22T00:11:51.930Z,24.38
2023-05-22T00:12:51.825Z,24.39
2023-05-22T00:13:51.831Z,24.39
2023-05-22T00:14:52.043Z,24.38
2023-05-22T00:15:51.981Z,24.35
2023-05-22T00:16:52.175Z,24.38
2023-05-22T00:17:52.071Z,24.37
2023-05-22T00:18:52.227Z,24.39
2023-05-22T00:19:52.379Z,24.39
2023-05-22T00:20:53.244Z,24.38
2023-05-22T00:21:53.280Z,24.37
2023-05-22T00:22:53.323Z,24.38
2023-05-22T00:23:53.447Z,24.38
2023-05-22T00:24:52.528Z,24.38
2023-05-22T00:25:53.714Z,24.37
2023-05-22T00:26:52.546Z,24.38
2023-05-22T00:27:52.666Z,24.35
2023-05-22T00:28:53.657Z,24.38
2023-05-22T00:29:53.707Z,24.37
2023-05-22T00:30:52.847Z,24.37
2023-05-22T00:31:53.888Z,24.35
2023-05-22T00:32:53.841Z,24.37
2023-05-22T00:33:52.964Z,24.35
2023-05-22T00:34:52.986Z,24.34
2023-05-22T00:35:53.037Z,24.35
2023-05-22T00:36:53.108Z,24.37
2023-05-22T00:37:53.031Z,24.34
2023-05-22T00:38:54.278Z,24.35
2023-05-22T00:39:54.350Z,24.34
2023-05-22T00:40:54.358Z,24.31
2023-05-22T00:41:53.212Z,24.35
2023-05-22T00:42:54.255Z,24.32
2023-05-22T00:43:53.287Z,24.31
2023-05-22T00:44:53.488Z,24.31
2023-05-22T00:45:54.378Z,24.30
2023-05-22T00:46:53.482Z,24.32
2023-05-22T00:47:53.508Z,24.32
2023-05-22T00:48:53.425Z,24.30
2023-05-22T00:49:54.427Z,24.31
2023-05-22T00:50:54.642Z,24.31
2023-05-22T00:51:54.520Z,24.31
2023-05-22T00:52:53.518Z,24.30
2023-05-22T00:53:54.658Z,24.30
2023-05-22T00:54:53.714Z,24.30
2023-05-22T00:55:54.817Z,24.32
2023-05-22T00:56:53.619Z,24.28
2023-05-22T00:57:54.656Z,24.30
2023-05-22T00:58:54.701Z,24.30
2023-05-22T00:59:54.022Z,24.28
2023-05-22T01:00:54.993Z,24.28
2023-05-22T01:01:54.983Z,24.30
2023-05-22T01:02:53.944Z,24.28
2023-05-22T01:03:54.075Z,24.27
2023-05-22T01:04:53.840Z,24.28
2023-05-22T01:05:54.935Z,24.27
2023-05-22T01:06:55.027Z,24.28
2023-05-22T01:07:54.832Z,24.27
2023-05-22T01:08:54.051Z,24.28
2023-05-22T01:09:54.958Z,24.28
2023-05-22T01:10:54.981Z,24.27
2023-05-22T01:11:54.005Z,24.27
2023-05-22T01:12:53.981Z,24.27
2023-05-22T01:13:53.815Z,24.25
2023-05-22T01:14:53.802Z,24.25
2023-05-22T01:15:53.825Z,24.27
2023-05-22T01:16:54.000Z,24.27
2023-05-22T01:17:53.927Z,24.25
2023-05-22T01:18:53.871Z,24.27
2023-05-22T01:19:54.781Z,24.27
2023-05-22T01:20:54.753Z,24.25
2023-05-22T01:21:53.759Z,24.23
2023-05-22T01:22:54.787Z,24.25
2023-05-22T01:23:54.802Z,24.24
2023-05-22T01:24:55.005Z,24.24
2023-05-22T01:25:53.726Z,24.24
2023-05-22T01:26:54.818Z,24.24
2023-05-22T01:27:53.839Z,24.23
2023-05-22T01:28:54.761Z,24.23
2023-05-22T01:29:54.940Z,24.21
2023-05-22T01:30:54.797Z,24.23
2023-05-22T01:31:53.809Z,24.21
2023-05-22T01:32:53.986Z,24.20
2023-05-22T01:33:53.779Z,24.23
2023-05-22T01:34:54.910Z,24.23
2023-05-22T01:35:53.851Z,24.21
2023-05-22T01:36:53.830Z,24.21
2023-05-22T01:37:54.675Z,24.17
2023-05-22T01:38:53.749Z,24.21
2023-05-22T01:39:53.910Z,24.20
2023-05-22T01:40:53.742Z,24.17
2023-05-22T01:41:54.702Z,24.17
2023-05-22T01:42:54.771Z,24.20
2023-05-22T01:43:54.840Z,24.17
2023-05-22T01:44:54.669Z,24.20
2023-05-22T01:45:53.848Z,24.18
2023-05-22T01:46:53.664Z,24.18
2023-05-22T01:47:54.971Z,24.17
2023-05-22T01:48:53.728Z,24.18
2023-05-22T01:49:53.941Z,24.18
2023-05-22T01:50:53.840Z,24.16
2023-05-22T01:51:54.732Z,24.16
2023-05-22T01:52:53.709Z,24.17
2023-05-22T01:53:53.822Z,24.17
2023-05-22T01:54:53.745Z,24.14
2023-05-22T01:55:54.667Z,24.16
2023-05-22T01:56:53.877Z,24.16
2023-05-22T01:57:54.702Z,24.17
2023-05-22T01:58:54.798Z,24.17
2023-05-22T01:59:54.830Z,24.16
2023-05-22T02:00:54.955Z,24.14
2023-05-22T02:01:53.741Z,24.16
2023-05-22T02:02:53.699Z,24.16
2023-05-22T02:03:54.618Z,24.14
2023-05-22T02:04:53.623Z,24.14
2023-05-22T02:05:54.624Z,24.14
2023-05-22T02:06:53.634Z,24.13
2023-05-22T02:07:53.620Z,24.16
2023-05-22T02:08:53.649Z,24.16
2023-05-22T02:09:53.631Z,24.13
2023-05-22T02:10:53.652Z,24.13
2023-05-22T02:11:53.640Z,24.13
2023-05-22T02:12:54.648Z,24.13
2023-05-22T02:13:54.627Z,24.13
2023-05-22T02:14:53.649Z,24.11
2023-05-22T02:15:53.665Z,24.11
2023-05-22T02:16:53.633Z,24.13
2023-05-22T02:17:53.690Z,24.13
2023-05-22T02:18:54.674Z,24.10
2023-05-22T02:19:53.663Z,24.11
2023-05-22T02:20:54.650Z,24.10
2023-05-22T02:21:54.640Z,24.10
2023-05-22T02:22:53.660Z,24.10
2023-05-22T02:23:54.653Z,24.10
2023-05-22T02:24:54.669Z,24.10
2023-05-22T02:25:53.675Z,24.10
2023-05-22T02:26:54.700Z,24.09
2023-05-22T02:27:53.717Z,24.09
2023-05-22T02:28:53.702Z,24.09
2023-05-22T02:29:54.689Z,24.10
2023-05-22T02:30:53.725Z,24.06
2023-05-22T02:31:54.701Z,24.07
2023-05-22T02:32:54.737Z,24.09
2023-05-22T02:33:54.741Z,24.07
2023-05-22T02:34:54.851Z,24.07
2023-05-22T02:35:54.712Z,24.07
2023-05-22T02:36:53.712Z,24.06
2023-05-22T02:37:53.759Z,24.06
2023-05-22T02:38:54.752Z,24.07
2023-05-22T02:39:53.744Z,24.04
2023-05-22T02:40:54.777Z,24.06
2023-05-22T02:41:54.791Z,24.04
2023-05-22T02:42:54.796Z,24.07
2023-05-22T02:43:53.779Z,24.06
2023-05-22T02:44:54.783Z,24.04
2023-05-22T02:45:53.786Z,24.06
2023-05-22T02:46:54.909Z,24.03
2023-05-22T02:47:53.859Z,24.03
2023-05-22T02:48:53.812Z,24.04
2023-05-22T02:49:54.815Z,24.03
2023-05-22T02:50:53.808Z,24.03
2023-05-22T02:51:53.817Z,24.04
2023-05-22T02:52:53.842Z,24.01
2023-05-22T02:53:54.835Z,24.01
2023-05-22T02:54:54.857Z,24.03
2023-05-22T02:55:54.861Z,24.01
2023-05-22T02:56:54.885Z,24.03
2023-05-22T02:57:53.872Z,24.00
2023-05-22T02:58:54.899Z,24.00
2023-05-22T02:59:53.900Z,24.03
2023-05-22T03:00:54.907Z,24.01
2023-05-22T03:01:54.927Z,24.01
2023-05-22T03:02:54.998Z,24.03
2023-05-22T03:03:55.148Z,24.00
2023-05-22T03:04:53.938Z,23.99
2023-05-22T03:05:54.949Z,23.99
2023-05-22T03:06:54.962Z,24.01
2023-05-22T03:07:54.982Z,23.99
2023-05-22T03:08:53.982Z,24.00
2023-05-22T03:09:55.013Z,23.99
2023-05-22T03:10:53.994Z,23.97
2023-05-22T03:11:54.020Z,23.97
2023-05-22T03:12:54.034Z,24.00
2023-05-22T03:13:54.058Z,23.97
2023-05-22T03:14:55.059Z,23.97
2023-05-22T03:15:55.109Z,23.99
2023-05-22T03:16:55.073Z,23.97
2023-05-22T03:17:55.096Z,23.96
2023-05-22T03:18:54.112Z,23.97
2023-05-22T03:19:55.081Z,23.96
2023-05-22T03:20:55.124Z,23.97
2023-05-22T03:21:55.129Z,23.95
2023-05-22T03:22:55.119Z,23.95
2023-05-22T03:23:55.129Z,23.96
2023-05-22T03:24:54.162Z,23.95
2023-05-22T03:25:55.164Z,23.96
2023-05-22T03:26:54.181Z,23.95
2023-05-22T03:27:55.182Z,23.96
2023-05-22T03:28:55.223Z,23.96
2023-05-22T03:29:55.215Z,23.96
2023-05-22T03:30:54.258Z,23.96
2023-05-22T03:31:55.229Z,23.96
2023-05-22T03:32:55.310Z,23.93
2023-05-22T03:33:54.314Z,23.97
2023-05-22T03:34:54.270Z,23.95
2023-05-22T03:35:55.297Z,23.95
2023-05-22T03:36:55.301Z,23.95
2023-05-22T03:37:55.309Z,23.95
2023-05-22T03:38:55.321Z,23.95
2023-05-22T03:39:55.349Z,23.95
2023-05-22T03:40:54.338Z,23.95
2023-05-22T03:41:55.377Z,23.95
2023-05-22T03:42:55.386Z,23.93
2023-05-22T03:43:54.396Z,23.95
2023-05-22T03:44:54.412Z,23.93
2023-05-22T03:45:54.472Z,23.92
2023-05-22T03:46:55.616Z,23.92
2023-05-22T03:47:54.488Z,23.95
2023-05-22T03:48:55.486Z,23.93
2023-05-22T03:49:55.482Z,23.92
2023-05-22T03:50:55.507Z,23.92
2023-05-22T03:51:55.516Z,23.95
2023-05-22T03:52:55.538Z,23.92
2023-05-22T03:53:55.540Z,23.92
2023-05-22T03:54:55.564Z,23.92
2023-05-22T03:55:55.583Z,23.92
2023-05-22T03:56:55.594Z,23.90
2023-05-22T03:57:55.603Z,23.92
2023-05-22T03:58:55.633Z,23.90
2023-05-22T03:59:55.645Z,23.90
2023-05-22T04:00:54.689Z,23.90
2023-05-22T04:01:54.689Z,23.92
2023-05-22T04:02:55.830Z,23.93
2023-05-22T04:03:54.719Z,23.93
2023-05-22T04:04:55.747Z,23.92
2023-05-22T04:05:54.760Z,23.90
2023-05-22T04:06:55.765Z,23.90
2023-05-22T04:07:54.795Z,23.89
2023-05-22T04:08:55.826Z,23.90
2023-05-22T04:09:54.849Z,23.89
2023-05-22T04:10:55.865Z,23.90
2023-05-22T04:11:55.867Z,23.89
2023-05-22T04:12:55.892Z,23.87
2023-05-22T04:13:55.904Z,23.84
2023-05-22T04:14:54.918Z,23.87
2023-05-22T04:15:55.985Z,23.89
2023-05-22T04:16:56.010Z,23.84
2023-05-22T04:17:55.088Z,23.89
2023-05-22T04:18:56.079Z,23.89
2023-05-22T04:19:56.036Z,23.86
2023-05-22T04:20:56.064Z,23.87
2023-05-22T04:21:55.073Z,23.87
2023-05-22T04:22:56.092Z,23.87
2023-05-22T04:23:56.129Z,23.87
2023-05-22T04:24:55.160Z,23.86
2023-05-22T04:25:55.184Z,23.87
2023-05-22T04:26:56.227Z,23.86
2023-05-22T04:27:56.223Z,23.84
2023-05-22T04:28:56.238Z,23.86
2023-05-22T04:29:56.287Z,23.86
2023-05-22T04:30:56.333Z,23.87
2023-05-22T04:31:56.327Z,23.87
2023-05-22T04:32:56.437Z,23.84
2023-05-22T04:33:56.390Z,23.84
2023-05-22T04:34:56.537Z,23.86
2023-05-22T04:35:56.456Z,23.86
2023-05-22T04:36:55.465Z,23.86
2023-05-22T04:37:56.505Z,23.86
2023-05-22T04:38:56.539Z,23.86
2023-05-22T04:39:56.530Z,23.87
2023-05-22T04:40:55.572Z,23.84
2023-05-22T04:41:56.605Z,23.84
2023-05-22T04:42:56.619Z,23.83
2023-05-22T04:43:55.626Z,23.83
2023-05-22T04:44:55.647Z,23.84
2023-05-22T04:45:56.677Z,23.84
2023-05-22T04:46:56.754Z,23.86
2023-05-22T04:47:56.750Z,23.83
2023-05-22T04:48:56.738Z,23.83
2023-05-22T04:49:56.824Z,23.83
2023-05-22T04:50:55.812Z,23.83
2023-05-22T04:51:56.799Z,23.83
2023-05-22T04:52:55.831Z,23.80
2023-05-22T04:53:56.858Z,23.77
2023-05-22T04:54:55.872Z,23.80
2023-05-22T04:55:55.883Z,23.82
2023-05-22T04:56:56.912Z,23.77
2023-05-22T04:57:56.947Z,23.61
2023-05-22T04:58:56.966Z,23.37
2023-05-22T04:59:57.072Z,23.13
2023-05-22T05:00:57.113Z,22.93
2023-05-22T05:01:57.039Z,22.70
2023-05-22T05:02:57.157Z,22.46
2023-05-22T05:03:57.218Z,22.25
2023-05-22T05:04:56.143Z,22.05
2023-05-22T05:05:56.170Z,21.84
2023-05-22T05:06:57.245Z,21.59
2023-05-22T05:07:57.226Z,21.36
2023-05-22T05:08:57.281Z,21.19
2023-05-22T05:09:56.306Z,21.05
2023-05-22T05:10:56.389Z,20.97
2023-05-22T05:11:57.371Z,20.93
2023-05-22T05:12:57.373Z,20.89
2023-05-22T05:13:57.363Z,20.86
2023-05-22T05:14:56.376Z,20.83
2023-05-22T05:15:57.387Z,20.84
2023-05-22T05:16:56.431Z,20.84
2023-05-22T05:17:57.438Z,20.90
2023-05-22T05:18:56.448Z,20.91
2023-05-22T05:19:57.431Z,20.95
2023-05-22T05:20:57.439Z,20.94
2023-05-22T05:21:57.484Z,20.91
2023-05-22T05:22:56.507Z,20.90
2023-05-22T05:23:56.473Z,20.89
2023-05-22T05:24:57.526Z,20.87
2023-05-22T05:25:56.553Z,20.83
2023-05-22T05:26:57.594Z,20.83
2023-05-22T05:27:56.639Z,20.84
2023-05-22T05:28:57.709Z,20.93
2023-05-22T05:29:57.725Z,21.07
2023-05-22T05:30:57.709Z,21.18
2023-05-22T05:31:57.779Z,21.31
2023-05-22T05:32:56.871Z,21.42
2023-05-22T05:33:56.823Z,21.53
2023-05-22T05:34:57.885Z,21.63
2023-05-22T05:35:57.975Z,21.74
2023-05-22T05:36:56.883Z,21.86
2023-05-22T05:37:57.896Z,21.99
2023-05-22T05:38:56.965Z,22.10
2023-05-22T05:39:57.946Z,22.17
2023-05-22T05:40:58.010Z,22.25
2023-05-22T05:41:57.061Z,22.31
2023-05-22T05:42:58.182Z,22.37
2023-05-22T05:43:57.213Z,22.46
2023-05-22T05:47:58.438Z,22.59
2023-05-22T05:48:57.400Z,22.67
2023-05-22T05:49:58.396Z,22.69
2023-05-22T05:50:58.531Z,22.66
2023-05-22T05:51:58.505Z,22.60
2023-05-22T05:52:58.572Z,22.66
2023-05-22T05:53:58.648Z,22.70
2023-05-22T05:54:58.626Z,22.79
2023-05-22T05:55:57.621Z,22.90
2023-05-22T05:56:57.660Z,23.03
2023-05-22T05:57:58.792Z,23.15
2023-05-22T05:58:58.741Z,23.27
2023-05-22T05:59:57.765Z,23.34
2023-05-22T06:00:58.778Z,23.45
2023-05-22T06:01:59.257Z,23.62
2023-05-22T06:02:57.919Z,23.66
2023-05-22T06:03:58.929Z,23.48
2023-05-22T06:04:58.856Z,23.24
2023-05-22T06:05:57.934Z,22.99
2023-05-22T06:06:58.929Z,22.76
2023-05-22T06:07:59.000Z,22.60
2023-05-22T06:08:59.041Z,22.49
2023-05-22T06:09:58.101Z,22.39
2023-05-22T06:10:59.109Z,22.27
2023-05-22T06:11:59.119Z,22.17
2023-05-22T06:12:58.140Z,22.08
2023-05-22T06:13:59.120Z,22.07
2023-05-22T06:14:58.152Z,22.07
2023-05-22T06:16:02.206Z,22.11
2023-05-22T06:16:59.167Z,22.25
2023-05-22T06:17:58.145Z,22.41
2023-05-22T06:18:58.137Z,22.55
2023-05-22T06:19:59.114Z,22.70
2023-05-22T06:20:58.091Z,22.85
2023-05-22T06:21:59.087Z,22.99
2023-05-22T06:22:59.093Z,23.09
2023-05-22T06:23:59.122Z,23.22
2023-05-22T06:24:59.086Z,23.34
2023-05-22T06:25:59.113Z,23.44
2023-05-22T06:26:58.061Z,23.52
2023-05-22T06:27:58.057Z,23.61
2023-05-22T06:28:58.046Z,23.72
2023-05-22T06:29:59.045Z,23.77
2023-05-22T06:30:58.033Z,23.92
2023-05-22T06:31:59.100Z,24.01
2023-05-22T06:32:58.118Z,24.10
2023-05-22T06:33:59.158Z,24.16
2023-05-22T06:34:58.998Z,24.21
2023-05-22T06:35:57.995Z,24.30
2023-05-22T06:36:58.021Z,24.32
2023-05-22T06:37:57.978Z,24.37
2023-05-22T06:38:58.998Z,24.47
2023-05-22T06:39:58.978Z,24.56
2023-05-22T06:40:58.956Z,24.62
2023-05-22T06:41:59.009Z,24.68
2023-05-22T06:42:58.966Z,24.69
2023-05-22T06:43:58.937Z,24.72
2023-05-22T06:44:57.934Z,24.79
2023-05-22T06:45:59.005Z,24.85
2023-05-22T06:46:58.913Z,24.89
2023-05-22T06:47:58.986Z,24.92
2023-05-22T06:48:58.896Z,25.02
2023-05-22T06:49:58.922Z,25.03
2023-05-22T06:50:58.880Z,25.00
2023-05-22T06:51:57.889Z,24.99
2023-05-22T06:52:58.863Z,25.03
2023-05-22T06:53:58.858Z,25.03
2023-05-22T06:54:57.860Z,25.00
2023-05-22T06:55:57.875Z,24.90
2023-05-22T06:56:59.294Z,24.82
2023-05-22T06:57:57.852Z,24.73
2023-05-22T06:58:58.865Z,24.72
2023-05-22T06:59:58.902Z,24.73
2023-05-22T07:00:58.977Z,24.82
2023-05-22T07:01:58.967Z,24.92
2023-05-22T07:02:59.029Z,25.00
2023-05-22T07:03:58.011Z,25.02
2023-05-22T07:04:59.017Z,25.02
2023-05-22T07:05:59.075Z,25.09
2023-05-22T07:06:59.033Z,25.17
2023-05-22T07:07:59.062Z,25.28
2023-05-22T07:08:59.087Z,25.27
2023-05-22T07:09:59.155Z,25.37
2023-05-22T07:10:59.210Z,25.36
2023-05-22T07:11:59.272Z,25.38
2023-05-22T07:12:59.325Z,25.40
2023-05-22T07:13:59.413Z,25.51
2023-05-22T07:14:58.440Z,25.48
2023-05-22T07:15:59.556Z,25.52
2023-05-22T07:16:58.625Z,25.58
2023-05-22T07:17:59.692Z,25.62
2023-05-22T07:18:58.733Z,25.58
2023-05-22T07:19:59.680Z,25.64
2023-05-22T07:20:58.777Z,25.68
2023-05-22T07:21:59.790Z,25.71
2023-05-22T07:22:59.823Z,25.79
2023-05-22T07:23:59.862Z,25.83
2023-05-22T07:25:02.874Z,25.90
2023-05-22T07:25:59.877Z,25.96
2023-05-22T07:26:59.883Z,25.95
2023-05-22T07:27:58.854Z,25.92
2023-05-22T07:28:58.866Z,25.95
2023-05-22T07:30:00.059Z,26.07
2023-05-22T07:30:59.849Z,26.02
2023-05-22T07:31:58.944Z,26.00
2023-05-22T07:32:59.846Z,26.03
2023-05-22T07:33:59.834Z,26.06
2023-05-22T07:34:59.855Z,26.02
2023-05-22T07:35:59.822Z,26.03
2023-05-22T07:36:59.847Z,25.97
2023-05-22T07:37:59.797Z,26.03
2023-05-22T07:38:59.777Z,26.03
2023-05-22T07:39:59.783Z,26.03
2023-05-22T07:40:59.772Z,26.09
2023-05-22T07:42:01.505Z,26.09
2023-05-22T07:42:59.757Z,26.10
2023-05-22T07:43:59.758Z,26.16
2023-05-22T07:44:59.751Z,26.19
2023-05-22T07:45:59.925Z,26.26
2023-05-22T07:46:58.735Z,26.24
2023-05-22T07:47:59.738Z,26.27
2023-05-22T07:48:59.710Z,26.28
2023-05-22T07:49:59.728Z,26.34
2023-05-22T07:50:59.709Z,26.33
2023-05-22T07:51:58.848Z,26.20
2023-05-22T07:52:59.685Z,26.21
2023-05-22T07:54:58.725Z,26.09
2023-05-22T07:55:58.677Z,26.04
2023-05-22T07:56:58.678Z,26.12
2023-05-22T07:57:59.644Z,26.19
2023-05-22T07:58:59.643Z,26.19
2023-05-22T07:59:59.638Z,26.23
2023-05-22T08:00:59.634Z,26.26
2023-05-22T08:01:59.853Z,26.36
2023-05-22T08:02:59.782Z,26.30
2023-05-22T08:03:59.737Z,26.33
2023-05-22T08:04:59.657Z,26.36
2023-05-22T08:05:59.596Z,26.26
2023-05-22T08:06:58.596Z,26.23
2023-05-22T08:07:59.565Z,26.15
2023-05-22T08:08:58.559Z,26.23
2023-05-22T08:09:59.593Z,26.19
2023-05-22T08:11:03.668Z,26.15
2023-05-22T08:11:59.580Z,26.23
2023-05-22T08:12:58.563Z,26.20
2023-05-22T08:13:58.548Z,26.28
2023-05-22T08:14:58.577Z,26.40
2023-05-22T08:16:00.176Z,26.31
2023-05-22T08:16:58.702Z,26.47
2023-05-22T08:17:58.770Z,26.51
2023-05-22T08:18:59.818Z,26.62
2023-05-22T08:19:59.944Z,26.59
2023-05-22T08:20:59.833Z,26.64
2023-05-22T08:21:59.936Z,26.71
2023-05-22T08:22:58.984Z,26.79
2023-05-22T08:24:00.030Z,26.86
2023-05-22T08:25:00.123Z,26.89
2023-05-22T08:25:59.163Z,26.99
2023-05-22T08:27:00.211Z,26.98
2023-05-22T08:28:00.262Z,27.03
2023-05-22T08:29:00.347Z,27.02
2023-05-22T08:30:00.403Z,27.00
2023-05-22T08:31:00.460Z,27.03
2023-05-22T08:31:59.738Z,27.00
2023-05-22T08:33:00.592Z,27.00
2023-05-22T08:33:59.722Z,27.02
2023-05-22T08:35:00.566Z,27.02
2023-05-22T08:36:00.632Z,27.03
2023-05-22T08:37:00.650Z,26.96
2023-05-22T08:38:00.708Z,26.86
2023-05-22T08:39:00.703Z,26.96
2023-05-22T08:40:00.753Z,26.93
2023-05-22T08:41:00.767Z,26.86
2023-05-22T08:42:00.777Z,26.89
2023-05-22T08:42:59.814Z,26.88
2023-05-22T08:44:00.809Z,26.74
2023-05-22T08:44:59.776Z,26.77
2023-05-22T08:46:00.790Z,26.65
2023-05-22T08:47:00.948Z,26.51
2023-05-22T08:48:00.890Z,26.43
2023-05-22T08:49:01.250Z,26.34
2023-05-22T08:49:59.947Z,26.23
2023-05-22T08:51:00.923Z,26.13
2023-05-22T08:52:00.964Z,26.04
2023-05-22T08:53:01.004Z,26.03
2023-05-22T08:54:01.054Z,26.04
2023-05-22T08:55:00.273Z,26.03
2023-05-22T08:56:01.120Z,26.04
2023-05-22T08:57:01.206Z,26.04
2023-05-22T08:58:01.355Z,26.04
2023-05-22T08:59:01.238Z,26.12
2023-05-22T09:00:00.288Z,26.13
2023-05-22T09:01:01.363Z,26.20
2023-05-22T09:02:00.342Z,26.23
2023-05-22T09:03:01.435Z,26.24
2023-05-22T09:04:01.416Z,26.19
2023-05-22T09:05:00.529Z,26.34
2023-05-22T09:06:00.372Z,26.47
2023-05-22T09:07:01.390Z,26.48
2023-05-22T09:08:16.147Z,26.62
2023-05-22T09:09:01.421Z,26.68
2023-05-22T09:10:01.474Z,26.62
2023-05-22T09:11:01.406Z,26.64
2023-05-22T09:12:01.409Z,26.70
2023-05-22T09:13:01.392Z,26.65
2023-05-22T09:14:01.392Z,26.58
2023-05-22T09:15:01.387Z,26.58
2023-05-22T09:16:01.453Z,26.55
2023-05-22T09:17:01.463Z,26.59
2023-05-22T09:18:01.419Z,26.61
2023-05-22T09:19:01.384Z,26.64
2023-05-22T09:20:01.341Z,26.52
2023-05-22T09:21:01.369Z,26.54
2023-05-22T09:22:01.385Z,26.55
2023-05-22T09:23:01.327Z,26.56
2023-05-22T09:24:01.563Z,26.68
2023-05-22T09:25:01.343Z,26.79
2023-05-22T09:26:01.313Z,26.83
2023-05-22T09:27:01.321Z,26.86
2023-05-22T09:28:00.302Z,26.88
2023-05-22T09:29:01.291Z,26.83
2023-05-22T09:30:01.276Z,26.75
2023-05-22T09:31:03.960Z,26.65
2023-05-22T09:32:01.273Z,26.61
2023-05-22T09:33:01.304Z,26.58
2023-05-22T09:34:00.249Z,26.58
2023-05-22T09:35:00.265Z,26.54
2023-05-22T09:36:01.272Z,26.54
2023-05-22T09:37:00.259Z,26.58
2023-05-22T09:38:00.222Z,26.61
2023-05-22T09:39:01.224Z,26.62
2023-05-22T09:40:01.218Z,26.61
2023-05-22T09:41:01.220Z,26.64
2023-05-22T09:42:01.212Z,26.62
2023-05-22T09:43:01.304Z,26.62
2023-05-22T09:44:02.163Z,26.64
2023-05-22T09:45:01.176Z,26.59
2023-05-22T09:46:01.176Z,26.61
2023-05-22T09:47:01.166Z,26.67
2023-05-22T09:48:01.186Z,26.70
2023-05-22T09:49:00.176Z,26.75
2023-05-22T09:50:01.164Z,26.79
2023-05-22T09:51:00.277Z,26.81
2023-05-22T09:52:01.236Z,26.82
2023-05-22T09:53:01.545Z,26.85
2023-05-22T09:54:01.367Z,26.81
2023-05-22T09:55:01.425Z,26.79
2023-05-22T09:56:00.515Z,26.70
2023-05-22T09:57:01.487Z,26.61
2023-05-22T09:58:01.553Z,26.58
2023-05-22T09:59:01.540Z,26.56
2023-05-22T10:00:01.531Z,26.54
2023-05-22T10:01:01.561Z,26.54
2023-05-22T10:02:01.624Z,26.52
2023-05-22T10:03:01.607Z,26.55
2023-05-22T10:04:00.728Z,26.62
2023-05-22T10:05:01.726Z,26.61
2023-05-22T10:06:00.784Z,26.71
2023-05-22T10:07:01.814Z,26.75
2023-05-22T10:08:00.897Z,26.79
2023-05-22T10:09:02.048Z,26.85
2023-05-22T10:10:01.002Z,26.85
2023-05-22T10:11:02.073Z,26.78
2023-05-22T10:12:01.132Z,26.83
2023-05-22T10:13:02.182Z,26.79
2023-05-22T10:14:01.892Z,26.77
2023-05-22T10:15:01.296Z,26.75
2023-05-22T10:16:05.404Z,26.74
2023-05-22T10:17:02.383Z,26.64
2023-05-22T10:18:01.419Z,26.70
2023-05-22T10:19:01.380Z,26.79
2023-05-22T10:20:02.330Z,26.86
2023-05-22T10:21:02.359Z,26.89
2023-05-22T10:22:02.316Z,27.00
2023-05-22T10:23:01.362Z,26.98
2023-05-22T10:24:01.298Z,27.02
2023-05-22T10:25:02.408Z,27.07
2023-05-22T10:26:01.291Z,27.06
2023-05-22T10:27:02.282Z,27.02
2023-05-22T10:28:02.283Z,27.11
2023-05-22T10:29:02.271Z,27.13
2023-05-22T10:30:02.270Z,27.10
2023-05-22T10:31:02.240Z,27.10
2023-05-22T10:32:01.248Z,27.07
2023-05-22T10:33:01.367Z,27.09
2023-05-22T10:34:02.285Z,27.10
2023-05-22T10:35:02.240Z,27.11
2023-05-22T10:36:02.237Z,27.09
2023-05-22T10:37:13.095Z,27.13
2023-05-22T10:38:02.223Z,27.16
2023-05-22T10:39:02.187Z,27.16
2023-05-22T10:40:01.201Z,27.14
2023-05-22T10:41:01.301Z,27.20
2023-05-22T10:42:02.186Z,27.19
2023-05-22T10:43:01.177Z,27.20
2023-05-22T10:44:02.169Z,27.22
2023-05-22T10:45:02.165Z,27.22
2023-05-22T10:46:02.332Z,27.20
2023-05-22T10:47:02.156Z,27.09
2023-05-22T10:48:01.466Z,27.14
2023-05-22T10:49:02.174Z,27.11
2023-05-22T10:50:02.120Z,27.11
2023-05-22T10:51:02.130Z,27.06
2023-05-22T10:52:02.137Z,27.05
2023-05-22T10:53:02.124Z,27.07
2023-05-22T10:54:02.094Z,27.13
2023-05-22T10:55:01.123Z,27.11
2023-05-22T10:56:01.086Z,27.14
2023-05-22T10:57:01.203Z,27.11
2023-05-22T10:58:05.006Z,27.14
2023-05-22T10:59:01.049Z,27.16
2023-05-22T11:00:01.079Z,27.14
2023-05-22T11:01:02.051Z,27.14
2023-05-22T11:02:02.087Z,27.17
2023-05-22T11:03:13.559Z,27.19
2023-05-22T11:04:02.028Z,27.19
2023-05-22T11:05:01.155Z,27.23
2023-05-22T11:06:01.017Z,27.27
2023-05-22T11:07:01.007Z,27.30
2023-05-22T11:08:02.035Z,27.37
2023-05-22T11:09:01.004Z,27.38
2023-05-22T11:10:01.990Z,27.51
2023-05-22T11:11:01.971Z,27.58
2023-05-22T11:12:01.971Z,27.65
2023-05-22T11:13:02.103Z,27.66
2023-05-22T11:14:00.949Z,27.71
2023-05-22T11:15:00.949Z,27.65
2023-05-22T11:16:00.970Z,27.65
2023-05-22T11:17:00.958Z,27.62
2023-05-22T11:18:01.980Z,27.66
2023-05-22T11:19:07.261Z,27.60
2023-05-22T11:20:02.122Z,27.62
2023-05-22T11:21:01.915Z,27.55
2023-05-22T11:22:00.931Z,27.54
2023-05-22T11:23:01.905Z,27.54
2023-05-22T11:24:01.920Z,27.55
2023-05-22T11:25:00.877Z,27.61
2023-05-22T11:26:01.877Z,27.72
2023-05-22T11:27:01.873Z,27.72
2023-05-22T11:28:01.880Z,27.69
2023-05-22T11:29:00.906Z,27.71
2023-05-22T11:30:01.882Z,27.71
2023-05-22T11:31:01.917Z,27.69
2023-05-22T11:32:01.846Z,27.71
2023-05-22T11:33:01.892Z,27.61
2023-05-22T11:34:00.822Z,27.69
2023-05-22T11:35:01.813Z,27.71
2023-05-22T11:36:01.803Z,27.66
2023-05-22T11:37:01.818Z,27.61
2023-05-22T11:38:01.796Z,27.57
2023-05-22T11:39:01.793Z,27.54
2023-05-22T11:40:01.788Z,27.48
2023-05-22T11:41:01.766Z,27.50
2023-05-22T11:42:00.764Z,27.48
2023-05-22T11:43:01.766Z,27.48
2023-05-22T11:44:00.754Z,27.45
2023-05-22T11:45:01.888Z,27.45
2023-05-22T11:46:01.777Z,27.41
2023-05-22T11:47:01.722Z,27.41
2023-05-22T11:48:00.746Z,27.40
2023-05-22T11:49:01.730Z,27.43
2023-05-22T11:50:01.706Z,27.40
2023-05-22T11:51:00.712Z,27.38
2023-05-22T11:52:00.712Z,27.37
2023-05-22T11:53:00.712Z,27.37
2023-05-22T11:54:01.689Z,27.36
2023-05-22T11:55:00.690Z,27.37
2023-05-22T11:56:00.657Z,27.37
2023-05-22T11:57:00.662Z,27.36
2023-05-22T11:58:00.705Z,27.36
2023-05-22T11:59:01.782Z,27.36
2023-05-22T12:00:01.851Z,27.37
2023-05-22T12:01:01.907Z,27.36
2023-05-22T12:02:00.827Z,27.36
2023-05-22T12:03:01.960Z,27.36
2023-05-22T12:04:02.026Z,27.37
2023-05-22T12:05:00.917Z,27.37
2023-05-22T12:06:00.953Z,27.34
2023-05-22T12:07:01.003Z,27.33
2023-05-22T12:08:01.075Z,27.30
2023-05-22T12:09:01.037Z,27.32
2023-05-22T12:10:02.069Z,27.33
2023-05-22T12:11:02.096Z,27.34
2023-05-22T12:12:01.122Z,27.30
2023-05-22T12:13:02.222Z,27.32
2023-05-22T12:14:02.176Z,27.32
2023-05-22T12:15:02.200Z,27.32
2023-05-22T12:16:02.248Z,27.33
2023-05-22T12:17:02.382Z,27.33
2023-05-22T12:18:01.337Z,27.34
2023-05-22T12:19:01.275Z,27.37
2023-05-22T12:20:01.293Z,27.37
2023-05-22T12:21:01.299Z,27.40
2023-05-22T12:22:01.320Z,27.38
2023-05-22T12:23:02.343Z,27.38
2023-05-22T12:24:02.364Z,27.41
2023-05-22T12:25:02.375Z,27.43
2023-05-22T12:26:02.366Z,27.41
2023-05-22T12:27:02.387Z,27.44
2023-05-22T12:28:02.401Z,27.44
2023-05-22T12:29:02.426Z,27.43
2023-05-22T12:30:01.449Z,27.47
2023-05-22T12:31:01.452Z,27.47
2023-05-22T12:32:01.555Z,27.47
2023-05-22T12:33:02.704Z,27.50
2023-05-22T12:34:02.507Z,27.54
2023-05-22T12:35:02.535Z,27.51
2023-05-22T12:36:02.565Z,27.55
2023-05-22T12:37:02.530Z,27.57
2023-05-22T12:38:01.525Z,27.57
2023-05-22T12:39:01.555Z,27.60
2023-05-22T12:40:02.555Z,27.61
2023-05-22T12:41:01.553Z,27.61
2023-05-22T12:42:02.582Z,27.61
2023-05-22T12:43:02.663Z,27.65
2023-05-22T12:44:02.583Z,27.66
2023-05-22T12:45:02.624Z,27.66
2023-05-22T12:46:03.118Z,27.68
2023-05-22T12:47:01.575Z,27.68
2023-05-22T12:48:01.605Z,27.69
2023-05-22T12:49:02.701Z,27.71
2023-05-22T12:50:01.597Z,27.72
2023-05-22T12:51:02.572Z,27.74
2023-05-22T12:52:02.581Z,27.74
2023-05-22T12:53:02.576Z,27.75
2023-05-22T12:54:01.583Z,27.77
2023-05-22T12:55:01.571Z,27.78
2023-05-22T12:56:01.548Z,27.80
2023-05-22T12:57:02.555Z,27.81